sensor_id;sensor_type;location;lat;lon;timestamp;P1;durP1;ratioP1;P2;durP2;ratioP2
13335;SDS011;6737;51.480;11.962;2023-04-24T00:00:14;1.80;;;1.40;;
13335;SDS011;6737;51.480;11.962;2023-04-24T00:02:41;1.90;;;1.30;;
13335;SDS011;6737;51.480;11.962;2023-04-24T00:05:11;2.00;;;1.50;;
13335;SDS011;6737;51.480;11.962;2023-04-24T00:07:40;3.13;;;1.33;;
13335;SDS011;6737;51.480;11.962;2023-04-24T00:10:07;2.33;;;1.20;;
13335;SDS011;6737;51.480;11.962;2023-04-24T00:12:34;1.53;;;1.30;;
13335;SDS011;6737;51.480;11.962;2023-04-24T00:15:00;2.07;;;1.20;;
13335;SDS011;6737;51.480;11.962;2023-04-24T00:17:27;1.37;;;1.27;;
13335;SDS011;6737;51.480;11.962;2023-04-24T00:19:52;1.67;;;0.97;;
13335;SDS011;6737;51.480;11.962;2023-04-24T00:22:23;1.77;;;1.00;;
13335;SDS011;6737;51.480;11.962;2023-04-24T00:24:50;1.27;;;1.03;;
13335;SDS011;6737;51.480;11.962;2023-04-24T00:27:16;1.10;;;1.00;;
13335;SDS011;6737;51.480;11.962;2023-04-24T00:29:41;1.10;;;0.90;;
13335;SDS011;6737;51.480;11.962;2023-04-24T00:32:07;0.90;;;0.80;;
13335;SDS011;6737;51.480;11.962;2023-04-24T00:34:33;0.90;;;0.87;;
13335;SDS011;6737;51.480;11.962;2023-04-24T00:36:59;1.10;;;0.90;;
13335;SDS011;6737;51.480;11.962;2023-04-24T00:39:25;1.73;;;1.00;;
13335;SDS011;6737;51.480;11.962;2023-04-24T00:41:51;1.00;;;0.90;;
13335;SDS011;6737;51.480;11.962;2023-04-24T00:44:17;1.70;;;0.97;;
13335;SDS011;6737;51.480;11.962;2023-04-24T00:46:43;1.40;;;0.90;;
13335;SDS011;6737;51.480;11.962;2023-04-24T00:49:09;0.83;;;0.83;;
13335;SDS011;6737;51.480;11.962;2023-04-24T00:51:36;1.37;;;0.80;;
13335;SDS011;6737;51.480;11.962;2023-04-24T00:54:01;2.80;;;0.70;;
13335;SDS011;6737;51.480;11.962;2023-04-24T00:56:27;1.00;;;0.80;;
13335;SDS011;6737;51.480;11.962;2023-04-24T00:58:53;0.80;;;0.70;;
13335;SDS011;6737;51.480;11.962;2023-04-24T01:01:19;1.53;;;0.63;;
13335;SDS011;6737;51.480;11.962;2023-04-24T01:03:46;2.57;;;0.80;;
13335;SDS011;6737;51.480;11.962;2023-04-24T01:06:14;0.63;;;0.63;;
13335;SDS011;6737;51.480;11.962;2023-04-24T01:08:40;0.90;;;0.70;;
13335;SDS011;6737;51.480;11.962;2023-04-24T01:11:06;1.23;;;0.60;;
13335;SDS011;6737;51.480;11.962;2023-04-24T01:13:32;0.83;;;0.63;;
13335;SDS011;6737;51.480;11.962;2023-04-24T01:15:59;0.83;;;0.70;;
13335;SDS011;6737;51.480;11.962;2023-04-24T01:18:26;1.53;;;0.80;;
13335;SDS011;6737;51.480;11.962;2023-04-24T01:20:53;0.83;;;0.77;;
13335;SDS011;6737;51.480;11.962;2023-04-24T01:23:23;1.20;;;0.73;;
13335;SDS011;6737;51.480;11.962;2023-04-24T01:25:49;1.20;;;0.77;;
13335;SDS011;6737;51.480;11.962;2023-04-24T01:28:16;1.63;;;0.83;;
13335;SDS011;6737;51.480;11.962;2023-04-24T01:30:42;1.53;;;0.80;;
13335;SDS011;6737;51.480;11.962;2023-04-24T01:33:09;1.03;;;0.90;;
13335;SDS011;6737;51.480;11.962;2023-04-24T01:35:35;0.77;;;0.70;;
13335;SDS011;6737;51.480;11.962;2023-04-24T01:38:02;1.20;;;0.80;;
13335;SDS011;6737;51.480;11.962;2023-04-24T01:40:28;1.73;;;0.80;;
13335;SDS011;6737;51.480;11.962;2023-04-24T01:42:54;2.70;;;0.80;;
13335;SDS011;6737;51.480;11.962;2023-04-24T01:45:20;1.33;;;0.80;;
13335;SDS011;6737;51.480;11.962;2023-04-24T01:47:46;0.90;;;0.80;;
13335;SDS011;6737;51.480;11.962;2023-04-24T01:50:13;2.33;;;0.73;;
13335;SDS011;6737;51.480;11.962;2023-04-24T01:52:39;1.93;;;0.80;;
13335;SDS011;6737;51.480;11.962;2023-04-24T01:55:05;1.13;;;0.83;;
13335;SDS011;6737;51.480;11.962;2023-04-24T01:57:32;1.00;;;0.80;;
13335;SDS011;6737;51.480;11.962;2023-04-24T01:59:58;1.10;;;0.90;;
13335;SDS011;6737;51.480;11.962;2023-04-24T02:02:25;1.00;;;0.90;;
13335;SDS011;6737;51.480;11.962;2023-04-24T02:04:55;1.13;;;0.80;;
13335;SDS011;6737;51.480;11.962;2023-04-24T02:07:21;2.50;;;0.90;;
13335;SDS011;6737;51.480;11.962;2023-04-24T02:09:47;1.53;;;0.90;;
13335;SDS011;6737;51.480;11.962;2023-04-24T02:12:13;1.03;;;0.93;;
13335;SDS011;6737;51.480;11.962;2023-04-24T02:14:39;2.90;;;0.90;;
13335;SDS011;6737;51.480;11.962;2023-04-24T02:17:07;1.37;;;0.90;;
13335;SDS011;6737;51.480;11.962;2023-04-24T02:19:33;1.47;;;0.90;;
13335;SDS011;6737;51.480;11.962;2023-04-24T02:21:58;3.33;;;0.90;;
13335;SDS011;6737;51.480;11.962;2023-04-24T02:24:24;1.00;;;0.77;;
13335;SDS011;6737;51.480;11.962;2023-04-24T02:26:50;1.37;;;0.90;;
13335;SDS011;6737;51.480;11.962;2023-04-24T02:29:16;1.00;;;0.90;;
13335;SDS011;6737;51.480;11.962;2023-04-24T02:31:42;0.90;;;0.80;;
13335;SDS011;6737;51.480;11.962;2023-04-24T02:34:07;1.37;;;0.90;;
13335;SDS011;6737;51.480;11.962;2023-04-24T02:36:33;1.73;;;0.90;;
13335;SDS011;6737;51.480;11.962;2023-04-24T02:38:59;1.97;;;1.00;;
13335;SDS011;6737;51.480;11.962;2023-04-24T02:41:26;2.03;;;1.10;;
13335;SDS011;6737;51.480;11.962;2023-04-24T02:43:57;2.10;;;0.97;;
13335;SDS011;6737;51.480;11.962;2023-04-24T02:46:23;1.13;;;1.03;;
13335;SDS011;6737;51.480;11.962;2023-04-24T02:48:49;1.20;;;0.83;;
13335;SDS011;6737;51.480;11.962;2023-04-24T02:51:15;1.90;;;0.90;;
13335;SDS011;6737;51.480;11.962;2023-04-24T02:53:41;1.10;;;1.00;;
13335;SDS011;6737;51.480;11.962;2023-04-24T02:56:06;1.10;;;1.00;;
13335;SDS011;6737;51.480;11.962;2023-04-24T02:58:32;1.60;;;0.90;;
13335;SDS011;6737;51.480;11.962;2023-04-24T03:00:58;1.23;;;0.80;;
13335;SDS011;6737;51.480;11.962;2023-04-24T03:03:24;1.93;;;1.03;;
13335;SDS011;6737;51.480;11.962;2023-04-24T03:05:50;1.57;;;1.07;;
13335;SDS011;6737;51.480;11.962;2023-04-24T03:08:16;1.47;;;1.00;;
13335;SDS011;6737;51.480;11.962;2023-04-24T03:10:41;2.33;;;1.07;;
13335;SDS011;6737;51.480;11.962;2023-04-24T03:13:07;1.27;;;0.83;;
13335;SDS011;6737;51.480;11.962;2023-04-24T03:15:33;1.30;;;1.03;;
13335;SDS011;6737;51.480;11.962;2023-04-24T03:17:59;2.13;;;1.00;;
13335;SDS011;6737;51.480;11.962;2023-04-24T03:20:25;1.60;;;1.10;;
13335;SDS011;6737;51.480;11.962;2023-04-24T03:22:51;1.17;;;1.00;;
13335;SDS011;6737;51.480;11.962;2023-04-24T03:25:17;1.30;;;0.93;;
13335;SDS011;6737;51.480;11.962;2023-04-24T03:27:43;0.80;;;0.80;;
13335;SDS011;6737;51.480;11.962;2023-04-24T03:30:09;1.80;;;1.10;;
13335;SDS011;6737;51.480;11.962;2023-04-24T03:32:35;1.33;;;0.90;;
13335;SDS011;6737;51.480;11.962;2023-04-24T03:35:01;2.37;;;0.97;;
13335;SDS011;6737;51.480;11.962;2023-04-24T03:37:28;1.63;;;1.00;;
13335;SDS011;6737;51.480;11.962;2023-04-24T03:39:54;3.33;;;1.60;;
13335;SDS011;6737;51.480;11.962;2023-04-24T03:42:20;2.70;;;1.67;;
13335;SDS011;6737;51.480;11.962;2023-04-24T03:44:45;1.50;;;1.03;;
13335;SDS011;6737;51.480;11.962;2023-04-24T03:47:11;1.67;;;1.10;;
13335;SDS011;6737;51.480;11.962;2023-04-24T03:49:37;1.63;;;0.90;;
13335;SDS011;6737;51.480;11.962;2023-04-24T03:52:02;1.70;;;1.00;;
13335;SDS011;6737;51.480;11.962;2023-04-24T03:54:28;1.80;;;1.00;;
13335;SDS011;6737;51.480;11.962;2023-04-24T03:56:54;2.00;;;0.87;;
13335;SDS011;6737;51.480;11.962;2023-04-24T03:59:20;1.70;;;0.90;;
13335;SDS011;6737;51.480;11.962;2023-04-24T04:01:45;1.20;;;1.00;;
13335;SDS011;6737;51.480;11.962;2023-04-24T04:04:11;2.47;;;1.20;;
13335;SDS011;6737;51.480;11.962;2023-04-24T04:06:37;1.10;;;0.97;;
13335;SDS011;6737;51.480;11.962;2023-04-24T04:09:03;1.90;;;1.00;;
13335;SDS011;6737;51.480;11.962;2023-04-24T04:11:29;3.20;;;1.00;;
13335;SDS011;6737;51.480;11.962;2023-04-24T04:13:55;1.10;;;0.90;;
13335;SDS011;6737;51.480;11.962;2023-04-24T04:16:22;2.10;;;0.90;;
13335;SDS011;6737;51.480;11.962;2023-04-24T04:18:48;3.03;;;1.00;;
13335;SDS011;6737;51.480;11.962;2023-04-24T04:21:14;3.10;;;0.90;;
13335;SDS011;6737;51.480;11.962;2023-04-24T04:23:39;2.20;;;1.07;;
13335;SDS011;6737;51.480;11.962;2023-04-24T04:26:05;2.73;;;1.00;;
13335;SDS011;6737;51.480;11.962;2023-04-24T04:28:31;1.43;;;0.80;;
13335;SDS011;6737;51.480;11.962;2023-04-24T04:30:57;1.27;;;0.80;;
13335;SDS011;6737;51.480;11.962;2023-04-24T04:33:24;1.47;;;1.10;;
13335;SDS011;6737;51.480;11.962;2023-04-24T04:35:51;2.60;;;0.87;;
13335;SDS011;6737;51.480;11.962;2023-04-24T04:38:17;1.43;;;0.90;;
13335;SDS011;6737;51.480;11.962;2023-04-24T04:40:44;1.90;;;1.00;;
13335;SDS011;6737;51.480;11.962;2023-04-24T04:43:11;2.13;;;1.20;;
13335;SDS011;6737;51.480;11.962;2023-04-24T04:45:38;1.37;;;1.00;;
13335;SDS011;6737;51.480;11.962;2023-04-24T04:48:06;1.37;;;0.97;;
13335;SDS011;6737;51.480;11.962;2023-04-24T04:50:34;1.37;;;1.10;;
13335;SDS011;6737;51.480;11.962;2023-04-24T04:53:01;2.27;;;1.07;;
13335;SDS011;6737;51.480;11.962;2023-04-24T04:55:26;1.27;;;0.90;;
13335;SDS011;6737;51.480;11.962;2023-04-24T04:57:52;1.20;;;1.10;;
13335;SDS011;6737;51.480;11.962;2023-04-24T05:00:18;1.53;;;1.10;;
13335;SDS011;6737;51.480;11.962;2023-04-24T05:02:44;3.37;;;1.27;;
13335;SDS011;6737;51.480;11.962;2023-04-24T05:05:10;2.00;;;1.20;;
13335;SDS011;6737;51.480;11.962;2023-04-24T05:07:35;1.80;;;1.00;;
13335;SDS011;6737;51.480;11.962;2023-04-24T05:10:02;3.17;;;1.20;;
13335;SDS011;6737;51.480;11.962;2023-04-24T05:12:28;1.97;;;1.20;;
13335;SDS011;6737;51.480;11.962;2023-04-24T05:14:54;4.60;;;2.10;;
13335;SDS011;6737;51.480;11.962;2023-04-24T05:17:20;2.57;;;2.00;;
13335;SDS011;6737;51.480;11.962;2023-04-24T05:19:45;2.87;;;1.57;;
13335;SDS011;6737;51.480;11.962;2023-04-24T05:22:11;1.87;;;1.50;;
13335;SDS011;6737;51.480;11.962;2023-04-24T05:24:37;3.70;;;1.80;;
13335;SDS011;6737;51.480;11.962;2023-04-24T05:27:03;2.27;;;1.40;;
13335;SDS011;6737;51.480;11.962;2023-04-24T05:29:32;2.10;;;1.40;;
13335;SDS011;6737;51.480;11.962;2023-04-24T05:31:58;2.80;;;1.50;;
13335;SDS011;6737;51.480;11.962;2023-04-24T05:34:26;1.80;;;1.40;;
13335;SDS011;6737;51.480;11.962;2023-04-24T05:36:51;1.57;;;1.27;;
13335;SDS011;6737;51.480;11.962;2023-04-24T05:39:18;1.20;;;1.10;;
13335;SDS011;6737;51.480;11.962;2023-04-24T05:41:44;2.23;;;1.20;;
13335;SDS011;6737;51.480;11.962;2023-04-24T05:44:10;4.13;;;1.20;;
13335;SDS011;6737;51.480;11.962;2023-04-24T05:46:36;1.63;;;1.10;;
13335;SDS011;6737;51.480;11.962;2023-04-24T05:49:02;2.60;;;1.10;;
13335;SDS011;6737;51.480;11.962;2023-04-24T05:51:28;3.33;;;1.17;;
13335;SDS011;6737;51.480;11.962;2023-04-24T05:53:54;2.43;;;1.10;;
13335;SDS011;6737;51.480;11.962;2023-04-24T05:56:19;2.33;;;1.20;;
13335;SDS011;6737;51.480;11.962;2023-04-24T05:58:45;1.27;;;0.90;;
13335;SDS011;6737;51.480;11.962;2023-04-24T06:01:11;1.60;;;1.10;;
13335;SDS011;6737;51.480;11.962;2023-04-24T06:03:40;2.87;;;1.10;;
13335;SDS011;6737;51.480;11.962;2023-04-24T06:06:07;3.17;;;1.20;;
13335;SDS011;6737;51.480;11.962;2023-04-24T06:08:34;1.53;;;0.97;;
13335;SDS011;6737;51.480;11.962;2023-04-24T06:11:00;1.00;;;0.90;;
13335;SDS011;6737;51.480;11.962;2023-04-24T06:13:26;1.30;;;1.00;;
13335;SDS011;6737;51.480;11.962;2023-04-24T06:15:52;4.07;;;1.10;;
13335;SDS011;6737;51.480;11.962;2023-04-24T06:18:18;3.03;;;1.10;;
13335;SDS011;6737;51.480;11.962;2023-04-24T06:20:44;1.70;;;1.10;;
13335;SDS011;6737;51.480;11.962;2023-04-24T06:23:11;2.20;;;0.90;;
13335;SDS011;6737;51.480;11.962;2023-04-24T06:25:37;1.33;;;0.90;;
13335;SDS011;6737;51.480;11.962;2023-04-24T06:28:03;1.13;;;0.90;;
13335;SDS011;6737;51.480;11.962;2023-04-24T06:30:29;2.93;;;1.17;;
13335;SDS011;6737;51.480;11.962;2023-04-24T06:32:56;3.17;;;1.00;;
13335;SDS011;6737;51.480;11.962;2023-04-24T06:35:21;1.93;;;1.00;;
13335;SDS011;6737;51.480;11.962;2023-04-24T06:37:47;1.20;;;1.00;;
13335;SDS011;6737;51.480;11.962;2023-04-24T06:40:13;1.10;;;0.90;;
13335;SDS011;6737;51.480;11.962;2023-04-24T06:42:39;1.67;;;0.80;;
13335;SDS011;6737;51.480;11.962;2023-04-24T06:45:05;3.13;;;1.10;;
13335;SDS011;6737;51.480;11.962;2023-04-24T06:47:31;1.00;;;0.90;;
13335;SDS011;6737;51.480;11.962;2023-04-24T06:49:57;2.97;;;0.90;;
13335;SDS011;6737;51.480;11.962;2023-04-24T06:52:23;3.80;;;1.10;;
13335;SDS011;6737;51.480;11.962;2023-04-24T06:54:49;2.73;;;1.00;;
13335;SDS011;6737;51.480;11.962;2023-04-24T06:57:15;1.73;;;0.90;;
13335;SDS011;6737;51.480;11.962;2023-04-24T06:59:41;2.23;;;0.90;;
13335;SDS011;6737;51.480;11.962;2023-04-24T07:02:07;1.57;;;0.80;;
13335;SDS011;6737;51.480;11.962;2023-04-24T07:04:33;3.27;;;1.03;;
13335;SDS011;6737;51.480;11.962;2023-04-24T07:06:59;2.03;;;0.90;;
13335;SDS011;6737;51.480;11.962;2023-04-24T07:09:26;1.70;;;1.00;;
13335;SDS011;6737;51.480;11.962;2023-04-24T07:11:52;1.80;;;0.90;;
13335;SDS011;6737;51.480;11.962;2023-04-24T07:14:19;1.70;;;1.00;;
13335;SDS011;6737;51.480;11.962;2023-04-24T07:16:45;2.03;;;0.93;;
13335;SDS011;6737;51.480;11.962;2023-04-24T07:19:12;1.63;;;1.07;;
13335;SDS011;6737;51.480;11.962;2023-04-24T07:21:39;1.00;;;0.90;;
13335;SDS011;6737;51.480;11.962;2023-04-24T07:24:05;2.23;;;1.10;;
13335;SDS011;6737;51.480;11.962;2023-04-24T07:26:34;1.97;;;0.90;;
13335;SDS011;6737;51.480;11.962;2023-04-24T07:29:00;1.73;;;0.90;;
13335;SDS011;6737;51.480;11.962;2023-04-24T07:31:26;3.50;;;0.90;;
13335;SDS011;6737;51.480;11.962;2023-04-24T07:33:52;1.70;;;0.87;;
13335;SDS011;6737;51.480;11.962;2023-04-24T07:36:18;1.50;;;0.90;;
13335;SDS011;6737;51.480;11.962;2023-04-24T07:38:47;1.60;;;0.80;;
13335;SDS011;6737;51.480;11.962;2023-04-24T07:41:13;1.57;;;0.90;;
13335;SDS011;6737;51.480;11.962;2023-04-24T07:43:39;1.43;;;0.90;;
13335;SDS011;6737;51.480;11.962;2023-04-24T07:46:06;1.73;;;0.90;;
13335;SDS011;6737;51.480;11.962;2023-04-24T07:48:33;4.40;;;0.90;;
13335;SDS011;6737;51.480;11.962;2023-04-24T07:50:59;1.50;;;0.90;;
13335;SDS011;6737;51.480;11.962;2023-04-24T07:53:25;3.43;;;0.93;;
13335;SDS011;6737;51.480;11.962;2023-04-24T07:55:51;1.43;;;0.77;;
13335;SDS011;6737;51.480;11.962;2023-04-24T07:58:16;2.03;;;1.10;;
13335;SDS011;6737;51.480;11.962;2023-04-24T08:00:42;2.10;;;0.80;;
13335;SDS011;6737;51.480;11.962;2023-04-24T08:03:08;1.37;;;0.77;;
13335;SDS011;6737;51.480;11.962;2023-04-24T08:05:35;1.87;;;0.90;;
13335;SDS011;6737;51.480;11.962;2023-04-24T08:08:01;3.23;;;0.80;;
13335;SDS011;6737;51.480;11.962;2023-04-24T08:10:26;1.00;;;0.90;;
13335;SDS011;6737;51.480;11.962;2023-04-24T08:12:52;1.57;;;0.87;;
13335;SDS011;6737;51.480;11.962;2023-04-24T08:15:18;2.57;;;0.97;;
13335;SDS011;6737;51.480;11.962;2023-04-24T08:17:44;2.67;;;0.80;;
13335;SDS011;6737;51.480;11.962;2023-04-24T08:20:10;1.90;;;0.80;;
13335;SDS011;6737;51.480;11.962;2023-04-24T08:22:39;2.13;;;1.00;;
13335;SDS011;6737;51.480;11.962;2023-04-24T08:25:05;1.20;;;0.80;;
13335;SDS011;6737;51.480;11.962;2023-04-24T08:27:32;1.93;;;1.00;;
13335;SDS011;6737;51.480;11.962;2023-04-24T08:29:58;1.17;;;1.07;;
13335;SDS011;6737;51.480;11.962;2023-04-24T08:32:26;2.67;;;1.00;;
13335;SDS011;6737;51.480;11.962;2023-04-24T08:34:55;2.03;;;0.90;;
13335;SDS011;6737;51.480;11.962;2023-04-24T08:37:22;1.37;;;0.90;;
13335;SDS011;6737;51.480;11.962;2023-04-24T08:39:49;2.27;;;1.10;;
13335;SDS011;6737;51.480;11.962;2023-04-24T08:42:16;1.23;;;0.90;;
13335;SDS011;6737;51.480;11.962;2023-04-24T08:44:43;2.00;;;0.90;;
13335;SDS011;6737;51.480;11.962;2023-04-24T08:47:11;2.87;;;1.00;;
13335;SDS011;6737;51.480;11.962;2023-04-24T08:49:38;4.13;;;1.00;;
13335;SDS011;6737;51.480;11.962;2023-04-24T08:52:06;0.90;;;0.90;;
13335;SDS011;6737;51.480;11.962;2023-04-24T08:54:35;2.20;;;0.80;;
13335;SDS011;6737;51.480;11.962;2023-04-24T08:57:01;3.80;;;1.10;;
13335;SDS011;6737;51.480;11.962;2023-04-24T08:59:31;2.20;;;1.47;;
13335;SDS011;6737;51.480;11.962;2023-04-24T09:01:59;3.90;;;0.90;;
13335;SDS011;6737;51.480;11.962;2023-04-24T09:04:25;1.60;;;1.03;;
13335;SDS011;6737;51.480;11.962;2023-04-24T09:06:55;1.53;;;0.90;;
13335;SDS011;6737;51.480;11.962;2023-04-24T09:09:26;1.20;;;1.00;;
13335;SDS011;6737;51.480;11.962;2023-04-24T09:11:56;1.30;;;1.00;;
13335;SDS011;6737;51.480;11.962;2023-04-24T09:14:23;1.75;;;0.75;;
13335;SDS011;6737;51.480;11.962;2023-04-24T09:16:50;2.23;;;0.80;;
13335;SDS011;6737;51.480;11.962;2023-04-24T09:19:16;2.17;;;0.80;;
13335;SDS011;6737;51.480;11.962;2023-04-24T09:21:42;3.37;;;0.90;;
13335;SDS011;6737;51.480;11.962;2023-04-24T09:24:18;0.87;;;0.87;;
13335;SDS011;6737;51.480;11.962;2023-04-24T09:26:48;3.00;;;1.08;;
13335;SDS011;6737;51.480;11.962;2023-04-24T09:29:15;1.10;;;0.90;;
13335;SDS011;6737;51.480;11.962;2023-04-24T09:31:42;1.00;;;0.90;;
13335;SDS011;6737;51.480;11.962;2023-04-24T09:34:09;2.05;;;1.10;;
13335;SDS011;6737;51.480;11.962;2023-04-24T09:36:39;1.10;;;0.90;;
13335;SDS011;6737;51.480;11.962;2023-04-24T09:39:08;3.63;;;0.98;;
13335;SDS011;6737;51.480;11.962;2023-04-24T09:41:47;2.65;;;1.10;;
13335;SDS011;6737;51.480;11.962;2023-04-24T09:44:21;1.63;;;1.00;;
13335;SDS011;6737;51.480;11.962;2023-04-24T09:46:51;1.75;;;0.93;;
13335;SDS011;6737;51.480;11.962;2023-04-24T09:49:25;1.25;;;0.90;;
13335;SDS011;6737;51.480;11.962;2023-04-24T09:52:02;0.95;;;0.90;;
13335;SDS011;6737;51.480;11.962;2023-04-24T09:54:29;0.88;;;0.77;;
13335;SDS011;6737;51.480;11.962;2023-04-24T09:56:55;1.20;;;0.90;;
13335;SDS011;6737;51.480;11.962;2023-04-24T09:59:22;2.60;;;1.00;;
13335;SDS011;6737;51.480;11.962;2023-04-24T10:01:48;2.78;;;1.15;;
13335;SDS011;6737;51.480;11.962;2023-04-24T10:04:15;1.30;;;0.88;;
13335;SDS011;6737;51.480;11.962;2023-04-24T10:06:49;2.95;;;1.20;;
13335;SDS011;6737;51.480;11.962;2023-04-24T10:09:20;1.13;;;1.00;;
13335;SDS011;6737;51.480;11.962;2023-04-24T10:11:49;1.02;;;0.93;;
13335;SDS011;6737;51.480;11.962;2023-04-24T10:14:17;1.23;;;1.00;;
13335;SDS011;6737;51.480;11.962;2023-04-24T10:16:48;1.98;;;1.10;;
13335;SDS011;6737;51.480;11.962;2023-04-24T10:19:15;18.52;;;1.83;;
13335;SDS011;6737;51.480;11.962;2023-04-24T10:21:44;1.83;;;1.10;;
13335;SDS011;6737;51.480;11.962;2023-04-24T10:24:14;1.83;;;1.20;;
13335;SDS011;6737;51.480;11.962;2023-04-24T10:26:45;3.55;;;0.93;;
13335;SDS011;6737;51.480;11.962;2023-04-24T10:29:14;3.22;;;1.15;;
13335;SDS011;6737;51.480;11.962;2023-04-24T10:31:43;1.10;;;1.00;;
13335;SDS011;6737;51.480;11.962;2023-04-24T10:34:14;1.20;;;1.08;;
13335;SDS011;6737;51.480;11.962;2023-04-24T10:36:43;1.38;;;0.98;;
13335;SDS011;6737;51.480;11.962;2023-04-24T10:39:12;1.85;;;1.13;;
13335;SDS011;6737;51.480;11.962;2023-04-24T10:41:43;1.20;;;1.10;;
13335;SDS011;6737;51.480;11.962;2023-04-24T10:44:12;3.90;;;1.20;;
13335;SDS011;6737;51.480;11.962;2023-04-24T10:46:42;1.50;;;0.98;;
13335;SDS011;6737;51.480;11.962;2023-04-24T10:49:17;1.98;;;1.00;;
13335;SDS011;6737;51.480;11.962;2023-04-24T10:51:57;1.52;;;1.08;;
13335;SDS011;6737;51.480;11.962;2023-04-24T11:02:40;3.72;;;1.05;;
13335;SDS011;6737;51.480;11.962;2023-04-24T11:05:17;2.95;;;1.10;;
13335;SDS011;6737;51.480;11.962;2023-04-24T11:10:59;1.95;;;1.00;;
13335;SDS011;6737;51.480;11.962;2023-04-24T11:16:20;3.17;;;0.80;;
13335;SDS011;6737;51.480;11.962;2023-04-24T11:18:50;1.08;;;0.95;;
13335;SDS011;6737;51.480;11.962;2023-04-24T11:21:20;1.63;;;1.00;;
13335;SDS011;6737;51.480;11.962;2023-04-24T11:23:47;1.40;;;1.13;;
13335;SDS011;6737;51.480;11.962;2023-04-24T11:26:17;2.05;;;0.82;;
13335;SDS011;6737;51.480;11.962;2023-04-24T11:28:47;1.38;;;1.00;;
13335;SDS011;6737;51.480;11.962;2023-04-24T11:34:13;2.38;;;1.00;;
13335;SDS011;6737;51.480;11.962;2023-04-24T11:36:40;1.95;;;1.30;;
13335;SDS011;6737;51.480;11.962;2023-04-24T11:39:12;1.77;;;1.10;;
13335;SDS011;6737;51.480;11.962;2023-04-24T11:41:38;2.05;;;1.00;;
13335;SDS011;6737;51.480;11.962;2023-04-24T11:44:05;2.25;;;1.00;;
13335;SDS011;6737;51.480;11.962;2023-04-24T11:46:33;1.65;;;1.00;;
13335;SDS011;6737;51.480;11.962;2023-04-24T11:48:59;1.58;;;1.17;;
13335;SDS011;6737;51.480;11.962;2023-04-24T11:51:28;2.55;;;1.13;;
13335;SDS011;6737;51.480;11.962;2023-04-24T11:53:54;1.30;;;1.17;;
13335;SDS011;6737;51.480;11.962;2023-04-24T11:56:21;1.92;;;1.17;;
13335;SDS011;6737;51.480;11.962;2023-04-24T11:58:48;2.63;;;1.38;;
13335;SDS011;6737;51.480;11.962;2023-04-24T12:01:17;1.38;;;1.20;;
13335;SDS011;6737;51.480;11.962;2023-04-24T12:03:46;1.90;;;1.20;;
13335;SDS011;6737;51.480;11.962;2023-04-24T12:06:13;1.88;;;1.30;;
13335;SDS011;6737;51.480;11.962;2023-04-24T12:08:39;2.20;;;1.20;;
13335;SDS011;6737;51.480;11.962;2023-04-24T12:11:05;1.70;;;1.10;;
13335;SDS011;6737;51.480;11.962;2023-04-24T12:13:32;2.25;;;1.25;;
13335;SDS011;6737;51.480;11.962;2023-04-24T12:15:59;2.00;;;1.30;;
13335;SDS011;6737;51.480;11.962;2023-04-24T12:18:30;1.80;;;1.33;;
13335;SDS011;6737;51.480;11.962;2023-04-24T12:21:14;1.60;;;1.17;;
13335;SDS011;6737;51.480;11.962;2023-04-24T12:23:54;1.50;;;1.20;;
13335;SDS011;6737;51.480;11.962;2023-04-24T12:26:20;1.20;;;1.10;;
13335;SDS011;6737;51.480;11.962;2023-04-24T12:28:48;1.52;;;1.30;;
13335;SDS011;6737;51.480;11.962;2023-04-24T12:31:17;4.15;;;1.10;;
13335;SDS011;6737;51.480;11.962;2023-04-24T12:33:45;1.90;;;1.00;;
13335;SDS011;6737;51.480;11.962;2023-04-24T12:36:11;2.47;;;1.10;;
13335;SDS011;6737;51.480;11.962;2023-04-24T12:38:38;2.00;;;1.13;;
13335;SDS011;6737;51.480;11.962;2023-04-24T12:41:10;1.67;;;1.20;;
13335;SDS011;6737;51.480;11.962;2023-04-24T12:43:38;2.47;;;1.15;;
13335;SDS011;6737;51.480;11.962;2023-04-24T12:46:15;1.85;;;1.10;;
13335;SDS011;6737;51.480;11.962;2023-04-24T12:48:41;2.42;;;1.20;;
13335;SDS011;6737;51.480;11.962;2023-04-24T12:51:07;2.42;;;1.20;;
13335;SDS011;6737;51.480;11.962;2023-04-24T12:53:33;2.47;;;1.50;;
13335;SDS011;6737;51.480;11.962;2023-04-24T12:55:58;2.80;;;1.05;;
13335;SDS011;6737;51.480;11.962;2023-04-24T12:58:24;2.42;;;1.23;;
13335;SDS011;6737;51.480;11.962;2023-04-24T13:00:50;2.13;;;1.17;;
13335;SDS011;6737;51.480;11.962;2023-04-24T13:03:16;1.80;;;1.17;;
13335;SDS011;6737;51.480;11.962;2023-04-24T13:05:42;1.38;;;1.00;;
13335;SDS011;6737;51.480;11.962;2023-04-24T13:08:09;1.25;;;1.00;;
13335;SDS011;6737;51.480;11.962;2023-04-24T13:10:35;1.27;;;1.00;;
13335;SDS011;6737;51.480;11.962;2023-04-24T13:13:01;2.33;;;1.05;;
13335;SDS011;6737;51.480;11.962;2023-04-24T13:15:27;1.10;;;1.00;;
13335;SDS011;6737;51.480;11.962;2023-04-24T13:17:53;1.30;;;1.05;;
13335;SDS011;6737;51.480;11.962;2023-04-24T13:20:19;3.47;;;1.30;;
13335;SDS011;6737;51.480;11.962;2023-04-24T13:22:45;1.75;;;1.20;;
13335;SDS011;6737;51.480;11.962;2023-04-24T13:25:10;1.55;;;1.23;;
13335;SDS011;6737;51.480;11.962;2023-04-24T13:27:39;2.28;;;1.20;;
13335;SDS011;6737;51.480;11.962;2023-04-24T13:30:05;1.80;;;1.17;;
13335;SDS011;6737;51.480;11.962;2023-04-24T13:32:32;2.40;;;1.17;;
13335;SDS011;6737;51.480;11.962;2023-04-24T13:34:58;1.95;;;1.30;;
13335;SDS011;6737;51.480;11.962;2023-04-24T13:37:24;2.13;;;1.02;;
13335;SDS011;6737;51.480;11.962;2023-04-24T13:39:50;3.00;;;1.30;;
13335;SDS011;6737;51.480;11.962;2023-04-24T13:42:15;3.50;;;1.45;;
13335;SDS011;6737;51.480;11.962;2023-04-24T13:44:41;3.05;;;1.23;;
13335;SDS011;6737;51.480;11.962;2023-04-24T13:47:07;1.65;;;1.10;;
13335;SDS011;6737;51.480;11.962;2023-04-24T13:49:33;1.97;;;1.10;;
13335;SDS011;6737;51.480;11.962;2023-04-24T13:51:59;3.50;;;1.10;;
13335;SDS011;6737;51.480;11.962;2023-04-24T13:54:25;1.50;;;1.02;;
13335;SDS011;6737;51.480;11.962;2023-04-24T13:56:51;1.20;;;1.00;;
13335;SDS011;6737;51.480;11.962;2023-04-24T13:59:18;1.33;;;1.00;;
13335;SDS011;6737;51.480;11.962;2023-04-24T14:01:46;1.00;;;0.90;;
13335;SDS011;6737;51.480;11.962;2023-04-24T14:04:12;1.40;;;1.10;;
13335;SDS011;6737;51.480;11.962;2023-04-24T14:06:38;2.07;;;1.10;;
13335;SDS011;6737;51.480;11.962;2023-04-24T14:09:04;2.07;;;1.40;;
13335;SDS011;6737;51.480;11.962;2023-04-24T14:11:29;1.02;;;1.00;;
13335;SDS011;6737;51.480;11.962;2023-04-24T14:13:55;2.67;;;1.10;;
13335;SDS011;6737;51.480;11.962;2023-04-24T14:16:21;1.77;;;1.10;;
13335;SDS011;6737;51.480;11.962;2023-04-24T14:18:47;2.17;;;0.90;;
13335;SDS011;6737;51.480;11.962;2023-04-24T14:21:13;1.30;;;1.20;;
13335;SDS011;6737;51.480;11.962;2023-04-24T14:23:39;1.20;;;0.80;;
13335;SDS011;6737;51.480;11.962;2023-04-24T14:26:05;3.23;;;0.80;;
13335;SDS011;6737;51.480;11.962;2023-04-24T14:28:31;2.40;;;0.70;;
13335;SDS011;6737;51.480;11.962;2023-04-24T14:30:57;1.20;;;0.70;;
13335;SDS011;6737;51.480;11.962;2023-04-24T14:33:23;1.63;;;0.80;;
13335;SDS011;6737;51.480;11.962;2023-04-24T14:35:49;1.30;;;0.70;;
13335;SDS011;6737;51.480;11.962;2023-04-24T14:38:15;2.80;;;0.80;;
13335;SDS011;6737;51.480;11.962;2023-04-24T14:40:40;0.60;;;0.60;;
13335;SDS011;6737;51.480;11.962;2023-04-24T14:43:06;0.73;;;0.60;;
13335;SDS011;6737;51.480;11.962;2023-04-24T14:45:32;1.70;;;0.60;;
13335;SDS011;6737;51.480;11.962;2023-04-24T14:47:58;2.27;;;0.67;;
13335;SDS011;6737;51.480;11.962;2023-04-24T14:50:24;1.27;;;0.60;;
13335;SDS011;6737;51.480;11.962;2023-04-24T14:52:56;0.60;;;0.60;;
13335;SDS011;6737;51.480;11.962;2023-04-24T14:55:26;1.10;;;0.50;;
13335;SDS011;6737;51.480;11.962;2023-04-24T14:57:53;0.70;;;0.50;;
13335;SDS011;6737;51.480;11.962;2023-04-24T15:00:19;8.23;;;0.70;;
13335;SDS011;6737;51.480;11.962;2023-04-24T15:02:49;0.50;;;0.50;;